WetterOnline ( https://www.wetteronline.de )

Wetter aktuell Kronberg

Aktuelles Wetter: Kleiner Feldberg (826m)

6-stündlich | Neueste Meldungen
Ortszeit Temperatur Wetter
Di, 16.07. 8:00 14.2° C Nebel
Di, 16.07. 2:00 14.8° C Nebel
Mo, 15.07. 20:00 21.7° C wolkig
Mo, 15.07. 14:00 20.9° C wolkenlos
Mo, 15.07. 8:00 16.3° C leicht bewölkt
Mo, 15.07. 2:00 14.2° C bewölkt
So, 14.07. 20:00 16.7° C bedeckt
So, 14.07. 14:00 18.1° C wolkig
Ortszeit Temperatur Wetter
Di, 16.07. 9:00 14.2° C Nebel
Di, 16.07. 8:40 14.1° C Nebel
Di, 16.07. 8:30 14.3° C Nebel
Di, 16.07. 8:20 14.3° C Nebel
Di, 16.07. 8:10 14.1° C Nebel
Di, 16.07. 8:00 14.2° C Nebel
Di, 16.07. 7:50 14.2° C Nebel
Di, 16.07. 7:30 14.3° C Nebel
Di, 16.07. 7:00 14.6° C Nebel
Di, 16.07. 6:30 14.8° C Nebel
Di, 16.07. 6:00 14.9° C Nebel
Ortszeit Relative Feuchte Sichtweite
Di, 16.07. 8:00 99% 100 m
Di, 16.07. 2:00 99% 100 m
Mo, 15.07. 20:00 60% 55 km
Mo, 15.07. 14:00 52% 50 km
Mo, 15.07. 8:00 59% 65 km
Mo, 15.07. 2:00 66% 65 km
So, 14.07. 20:00 60% 55 km
So, 14.07. 14:00 60% 50 km
Ortszeit Relative Feuchte Sichtweite
Di, 16.07. 9:00 99% 0.3 km
Di, 16.07. 8:40 99% -
Di, 16.07. 8:30 99% 100 m
Di, 16.07. 8:20 99% -
Di, 16.07. 8:10 99% -
Di, 16.07. 8:00 99% 100 m
Di, 16.07. 7:50 99% -
Di, 16.07. 7:30 99% <100 m
Di, 16.07. 7:00 100% <100 m
Di, 16.07. 6:30 100% <100 m
Di, 16.07. 6:00 100% <100 m
Ortszeit Niederschlagsmenge Niederschlagsart
Di, 16.07. 8:00 5 l/m2 in 12 Std. Sprühregen
Di, 16.07. 2:00 5 l/m2 in 6 Std. Regen
Mo, 15.07. 20:00 0.0 l/m2 in 12 Std. -
Mo, 15.07. 14:00 0.0 l/m2 in 6 Std. -
Mo, 15.07. 8:00 0.0 l/m2 in 12 Std. -
Mo, 15.07. 2:00 0.0 l/m2 in 6 Std. -
So, 14.07. 20:00 0.0 l/m2 in 12 Std. -
So, 14.07. 14:00 0.0 l/m2 in 6 Std. -
Ortszeit Niederschlagsmenge Niederschlagsart
Di, 16.07. 9:00 0.0 l/m2 in 1 Std. -
Di, 16.07. 8:40 keine Meldung -
Di, 16.07. 8:30 0.0 l/m2 in 30 Min -
Di, 16.07. 8:20 keine Meldung -
Di, 16.07. 8:10 keine Meldung -
Di, 16.07. 8:00 0.0 l/m2 in 1 Std. Sprühregen
Di, 16.07. 7:50 keine Meldung -
Di, 16.07. 7:30 0.0 l/m2 in 30 Min -
Di, 16.07. 7:00 0.0 l/m2 in 1 Std. -
Di, 16.07. 6:30 0.0 l/m2 in 30 Min -
Di, 16.07. 6:00 <0.05 l/m2 in 1 Std. Sprühregen
Ortszeit Stärke Spitze Richtung
km/h Bft. km/h Grad Sektor
Di, 16.07. 8:00 13 3 37 250° W
Di, 16.07. 2:00 17 3 48 200° S
Mo, 15.07. 20:00 14 3 29 130° SO
Mo, 15.07. 14:00 11 2 22 130° SO
Mo, 15.07. 8:00 4 1 14 220° SW
Mo, 15.07. 2:00 4 1 14 270° W
So, 14.07. 20:00 6 1 33 250° W
So, 14.07. 14:00 9 2 31 220° SW
Ortszeit Stärke Spitze Richtung
km/h Bft. km/h Grad Sektor
Di, 16.07. 9:00 14 3 36 240° SW
Di, 16.07. 8:40 13 3 - 240° SW
Di, 16.07. 8:30 13 3 37 240° SW
Di, 16.07. 8:20 13 3 - 240° SW
Di, 16.07. 8:10 13 3 - 250° W
Di, 16.07. 8:00 13 3 35 250° W
Di, 16.07. 7:50 13 3 - 250° W
Di, 16.07. 7:30 11 2 30 250° W
Di, 16.07. 7:00 13 3 30 250° W
Di, 16.07. 6:30 11 2 25 250° W
Di, 16.07. 6:00 7 2 25 260° W
Ortszeit Untergrenze Bedeckung Gattung
total tief tief mittel hoch
Di, 16.07. 8:00 <30 m 8/8 0/8 - - -
Di, 16.07. 2:00 <30 m 8/8 0/8 - - -
Mo, 15.07. 20:00 4800 m 7/8 3/8 - - -
Mo, 15.07. 14:00 - 0/8 0/8 - - -
Mo, 15.07. 8:00 9000 m 6/8 0/8 - - -
Mo, 15.07. 2:00 3000 m 7/8 7/8 - - -
So, 14.07. 20:00 3900 m 8/8 8/8 - - -
So, 14.07. 14:00 990 m 6/8 6/8 - - -
Ortszeit Bedeckungsgrad in Achtel und Wolkenuntergrenze
Di, 16.07. 9:00 7(<30m)
Di, 16.07. 8:40 7
Di, 16.07. 8:30 8(<30m)
Di, 16.07. 8:20 8(<30m)
Di, 16.07. 8:10 8
Di, 16.07. 8:00 8(<30m)
Di, 16.07. 7:50 8(<30m)
Di, 16.07. 7:30 8(<30m)
Di, 16.07. 7:00 8(<30m)
Di, 16.07. 6:30 8(<30m)
Di, 16.07. 6:00 8(<30m)
Ortszeit Stationsdruck (hPa) Tendenz (hPa in 3 Std.)
Di, 16.07. 8:00 919 + 1,3
Di, 16.07. 2:00 918 - 0,2
Mo, 15.07. 20:00 918 - 0,9
Mo, 15.07. 14:00 920 - 0,5
Mo, 15.07. 8:00 921 + 0,4
Mo, 15.07. 2:00 921 0,0
So, 14.07. 20:00 920 - 0,1
So, 14.07. 14:00 920 - 0,1
Ortszeit Stationsdruck (hPa) Tendenz (hPa in 3 Std.)
Di, 16.07. 9:00 919 + 1,2
Di, 16.07. 8:40 919 keine Meldung
Di, 16.07. 8:30 919 + 1,1
Di, 16.07. 8:20 919 keine Meldung
Di, 16.07. 8:10 919 keine Meldung
Di, 16.07. 8:00 919 + 1,3
Di, 16.07. 7:50 919 keine Meldung
Di, 16.07. 7:30 919 + 1,1
Di, 16.07. 7:00 919 + 0,9
Di, 16.07. 6:30 918 + 0,9
Di, 16.07. 6:00 918 + 0,6
Ortszeit Schneehöhe (cm)
Di, 16.07. 8:00 0
Di, 16.07. 2:00 0
Mo, 15.07. 20:00 0
Mo, 15.07. 14:00 0
Mo, 15.07. 8:00 0
Mo, 15.07. 2:00 0
So, 14.07. 20:00 0
So, 14.07. 14:00 0
Ortszeit Schneehöhe (cm)
Di, 16.07. 9:00 0
Di, 16.07. 8:40 -
Di, 16.07. 8:30 0
Di, 16.07. 8:20 0
Di, 16.07. 8:10 -
Di, 16.07. 8:00 0
Di, 16.07. 7:50 0
Di, 16.07. 7:30 0
Di, 16.07. 7:00 0
Di, 16.07. 6:30 0
Di, 16.07. 6:00 0
Link zu dieser Seite / Seite empfehlen

Das Wetter in ...